Time;durP1;ratioP1;P1;durP2;ratioP2;P2;SDS_P1;SDS_P2;PMS_P1;PMS_P2;Temp;Humidity;BMP_temperature;BMP_pressure;BME280_temperature;BME280_humidity;BME280_pressure;Samples;Min_cycle;Max_cycle;Signal;HPM_P1;HPM_P2
2021/03/06 00:06:54;;;;;;;43.1;27.1;;;;;;;-4.19;100;99805.71;;;;
2021/03/06 00:16:51;;;;;;;30.7;23.3;;;;;;;-4.21;100;99812.98;;;;
2021/03/06 00:26:48;;;;;;;38.4;26.3;;;;;;;-4.25;100;99809.08;;;;
2021/03/06 00:36:45;;;;;;;47.4;30.6;;;;;;;-4.34;100;99800.45;;;;
2021/03/06 00:46:42;;;;;;;36.9;24.2;;;;;;;-4.35;100;99806.73;;;;
2021/03/06 00:56:41;;;;;;;39.9;26.5;;;;;;;-4.32;100;99801.1;;;;
2021/03/06 01:06:37;;;;;;;35.5;26.2;;;;;;;-4.27;100;99803.2;;;;
2021/03/06 01:16:34;;;;;;;40.1;27.9;;;;;;;-4.27;100;99803.98;;;;
2021/03/06 01:26:31;;;;;;;39.6;29.1;;;;;;;-4.38;100;99807.1;;;;
2021/03/06 01:36:28;;;;;;;40;28.7;;;;;;;-4.34;100;99829.39;;;;
2021/03/06 01:46:25;;;;;;;44.4;28.1;;;;;;;-4.31;100;99836.95;;;;
2021/03/06 01:56:22;;;;;;;46.7;29.8;;;;;;;-4.31;100;99829.06;;;;
2021/03/06 02:06:19;;;;;;;46.3;30.9;;;;;;;-4.35;100;99840.12;;;;
2021/03/06 02:16:16;;;;;;;42.1;27.2;;;;;;;-4.42;100;99832.13;;;;
2021/03/06 02:26:13;;;;;;;37.3;27.3;;;;;;;-4.39;100;99834.4;;;;
2021/03/06 02:36:10;;;;;;;44.5;27.7;;;;;;;-4.37;100;99832.39;;;;
2021/03/06 02:46:07;;;;;;;32;23;;;;;;;-4.36;100;99841.11;;;;
2021/03/06 02:56:04;;;;;;;31.8;22;;;;;;;-4.36;100;99849.82;;;;
2021/03/06 03:06:01;;;;;;;40.1;24.3;;;;;;;-4.38;100;99854.46;;;;
2021/03/06 03:15:58;;;;;;;37.4;20.9;;;;;;;-4.43;100;99859.43;;;;
2021/03/06 03:25:55;;;;;;;35.8;25.1;;;;;;;-4.37;100;99878.97;;;;
2021/03/06 03:35:53;;;;;;;33.3;17.9;;;;;;;-4.37;100;99887.65;;;;
2021/03/06 03:45:50;;;;;;;36.5;20.1;;;;;;;-4.31;100;99879.05;;;;
2021/03/06 03:55:47;;;;;;;27.5;21.8;;;;;;;-4.36;100;99884.03;;;;
2021/03/06 04:05:44;;;;;;;35.3;24.6;;;;;;;-4.42;100;99897.91;;;;
2021/03/06 04:15:41;;;;;;;24;21.2;;;;;;;-4.47;100;99902.05;;;;
2021/03/06 04:25:38;;;;;;;31;20;;;;;;;-4.49;100;99901.42;;;;
2021/03/06 04:35:35;;;;;;;31.4;21.5;;;;;;;-4.5;100;99918.2;;;;
2021/03/06 04:45:32;;;;;;;33.3;25.1;;;;;;;-4.5;100;99921.65;;;;
2021/03/06 04:55:29;;;;;;;40;21.8;;;;;;;-4.44;100;99935.92;;;;
2021/03/06 05:05:26;;;;;;;34.4;22.9;;;;;;;-4.57;100;99954.92;;;;
2021/03/06 05:15:26;;;;;;;43.4;23.9;;;;;;;-4.79;100;99966.28;;;;
2021/03/06 05:25:20;;;;;;;29.2;19.1;;;;;;;-4.82;100;99975.31;;;;
2021/03/06 05:35:17;;;;;;;36.5;23.6;;;;;;;-4.86;100;99979.28;;;;
2021/03/06 05:45:14;;;;;;;29.2;20.8;;;;;;;-4.75;100;99981.52;;;;
2021/03/06 05:55:11;;;;;;;32.1;21.7;;;;;;;-4.54;100;99986.13;;;;
2021/03/06 06:05:08;;;;;;;21;18.9;;;;;;;-4.27;100;99998.73;;;;
2021/03/06 06:15:05;;;;;;;26.8;17.2;;;;;;;-4.03;100;100012.7;;;;
2021/03/06 06:25:02;;;;;;;35.7;23.7;;;;;;;-3.85;100;100021.1;;;;
2021/03/06 06:34:59;;;;;;;34.8;24.9;;;;;;;-3.7;100;100040.3;;;;
2021/03/06 06:44:56;;;;;;;41.8;26.1;;;;;;;-3.38;100;100053.2;;;;
2021/03/06 06:54:53;;;;;;;32.3;24.7;;;;;;;-3.21;100;100062.5;;;;
2021/03/06 07:04:50;;;;;;;35.7;25.9;;;;;;;-3;100;100074.2;;;;
2021/03/06 07:14:47;;;;;;;30.8;20.7;;;;;;;-2.78;100;100075.9;;;;
2021/03/06 07:24:45;;;;;;;33.4;24;;;;;;;-2.34;100;100091.6;;;;
2021/03/06 07:34:42;;;;;;;32.5;23.5;;;;;;;-1.88;100;100082.3;;;;
2021/03/06 07:44:39;;;;;;;25;20.3;;;;;;;-1.53;100;100078.7;;;;
2021/03/06 07:54:37;;;;;;;29.6;22;;;;;;;-1.3;100;100091.6;;;;
2021/03/06 08:04:37;;;;;;;24.6;20.1;;;;;;;-1.12;97.10059;100092;;;;
2021/03/06 08:14:37;;;;;;;27.6;21.1;;;;;;;-0.8;96.52734;100105.5;;;;
2021/03/06 08:24:34;;;;;;;21.6;17.8;;;;;;;-0.68;94.79492;100098.7;;;;
2021/03/06 08:34:31;;;;;;;26.3;18.5;;;;;;;-0.55;93.24023;100094.2;;;;
2021/03/06 08:44:26;;;;;;;25.4;20;;;;;;;-0.27;89.93848;100110;;;;
2021/03/06 08:54:21;;;;;;;35.1;21;;;;;;;0;89.52344;100103.7;;;;
2021/03/06 09:04:19;;;;;;;27.6;17.4;;;;;;;0.29;87.47656;100109.7;;;;
2021/03/06 09:14:17;;;;;;;23.2;16.4;;;;;;;0.69;86.4707;100106;;;;
2021/03/06 09:24:14;;;;;;;18.2;13.6;;;;;;;0.94;83.64844;100111.4;;;;
2021/03/06 09:34:12;;;;;;;17.6;12.6;;;;;;;1.33;82.62305;100105.2;;;;
2021/03/06 09:44:10;;;;;;;11.9;10.7;;;;;;;1.39;79.35938;100113.1;;;;
2021/03/06 09:54:07;;;;;;;15.2;10.3;;;;;;;1.78;76.72363;100114;;;;
2021/03/06 10:04:05;;;;;;;22.6;9.4;;;;;;;2.32;71.89063;100108.1;;;;
2021/03/06 10:14:03;;;;;;;15.9;9.9;;;;;;;2.74;71.78516;100118;;;;
2021/03/06 10:24:01;;;;;;;11.6;9.7;;;;;;;3.15;71.46387;100121.9;;;;
2021/03/06 10:33:59;;;;;;;16.2;10.6;;;;;;;2.66;70.24023;100128.9;;;;
2021/03/06 10:43:57;;;;;;;18.8;11.8;;;;;;;2.14;74.06641;100138.1;;;;
2021/03/06 10:53:55;;;;;;;15.9;12.1;;;;;;;2.73;73.69043;100119;;;;
2021/03/06 11:03:53;;;;;;;17.4;11.8;;;;;;;3.03;70.81348;100104;;;;
2021/03/06 11:13:50;;;;;;;16;12.2;;;;;;;2.42;73.55859;100105.8;;;;
2021/03/06 11:23:48;;;;;;;17.9;11.4;;;;;;;3.1;73.85254;100089.8;;;;
2021/03/06 11:33:46;;;;;;;22.4;14.2;;;;;;;3.18;71.75684;100078.8;;;;
2021/03/06 11:43:44;;;;;;;19.8;14.2;;;;;;;2.61;72.66113;100070.2;;;;
2021/03/06 11:53:43;;;;;;;21.6;13.1;;;;;;;2.23;72.36328;100064.2;;;;
2021/03/06 12:03:40;;;;;;;16.7;13.3;;;;;;;2.2;72.85742;100048.7;;;;
2021/03/06 12:13:38;;;;;;;18.9;12.9;;;;;;;3.15;69.43066;100036.6;;;;
2021/03/06 12:23:36;;;;;;;17.2;13.2;;;;;;;3.51;68.17676;100025.9;;;;
2021/03/06 12:33:34;;;;;;;12.6;11.3;;;;;;;3.89;66.3877;100025.5;;;;
2021/03/06 12:43:32;;;;;;;22.5;16.3;;;;;;;3.87;67.26465;100012.5;;;;
2021/03/06 12:53:30;;;;;;;18.7;13.7;;;;;;;4.09;67.85547;100003.9;;;;
2021/03/06 13:03:29;;;;;;;17.3;11.1;;;;;;;2.95;66.17773;100003;;;;
2021/03/06 13:13:27;;;;;;;15.9;9.9;;;;;;;2.74;67.67578;99994.73;;;;
2021/03/06 13:23:27;;;;;;;30.6;19.8;;;;;;;3.16;66.91992;99979.67;;;;
2021/03/06 13:33:23;;;;;;;20.3;9.7;;;;;;;2.92;64.95801;99973.39;;;;
2021/03/06 13:43:21;;;;;;;13.4;9.2;;;;;;;3.81;62.78516;99948.56;;;;
2021/03/06 13:53:19;;;;;;;15.5;10.4;;;;;;;3.44;59.77734;99963.88;;;;
2021/03/06 14:03:17;;;;;;;13.2;7.7;;;;;;;3.16;58.72363;99939.72;;;;
2021/03/06 14:13:15;;;;;;;10.2;6.3;;;;;;;3.32;59.06934;99931.08;;;;
2021/03/06 14:23:13;;;;;;;15.8;8.9;;;;;;;3.34;55.80176;99928.98;;;;
2021/03/06 14:33:11;;;;;;;12.6;6.8;;;;;;;3.78;59.18848;99912.52;;;;
2021/03/06 14:43:09;;;;;;;12.9;7.9;;;;;;;3.94;55.63379;99900.34;;;;
2021/03/06 14:53:07;;;;;;;10.9;7.4;;;;;;;3.54;53.97461;99900.17;;;;
2021/03/06 15:03:05;;;;;;;9.9;6.5;;;;;;;3.28;57.91504;99903.26;;;;
2021/03/06 15:13:03;;;;;;;13.5;7;;;;;;;3.45;57.69434;99886.39;;;;
2021/03/06 15:23:01;;;;;;;11.3;7.4;;;;;;;3.07;57.19531;99890.45;;;;
2021/03/06 15:32:59;;;;;;;17.6;10.5;;;;;;;2.8;58.25195;99888.16;;;;
2021/03/06 15:42:57;;;;;;;14.8;10.7;;;;;;;2.42;60.13574;99887.63;;;;
2021/03/06 15:52:55;;;;;;;17.8;11.8;;;;;;;1.97;59.97266;99879.11;;;;
2021/03/06 16:02:53;;;;;;;12.2;8.9;;;;;;;1.67;61.46387;99878.97;;;;
2021/03/06 16:12:51;;;;;;;16.6;12.2;;;;;;;1.28;62.37305;99877.47;;;;
2021/03/06 16:22:49;;;;;;;21.3;14.8;;;;;;;0.82;64.0752;99874.29;;;;
2021/03/06 16:32:46;;;;;;;19.3;17.2;;;;;;;0.39;66.59961;99892.64;;;;
2021/03/06 16:42:44;;;;;;;22.5;15.8;;;;;;;-0.01;68.67969;99900.72;;;;
2021/03/06 16:52:42;;;;;;;18.8;12.1;;;;;;;-0.22;70.61719;99908.08;;;;
2021/03/06 17:02:41;;;;;;;21.3;14.7;;;;;;;-0.3;72.18066;99914.39;;;;
2021/03/06 17:12:37;;;;;;;26.8;16.2;;;;;;;-0.4;73.72754;99916.64;;;;
2021/03/06 17:22:35;;;;;;;22.8;17.7;;;;;;;-0.57;72.94824;99926;;;;
2021/03/06 17:32:32;;;;;;;19.5;15.5;;;;;;;-0.75;73.77539;99917.83;;;;
2021/03/06 17:42:30;;;;;;;26.4;17.1;;;;;;;-0.84;75.2002;99921.7;;;;
2021/03/06 17:52:27;;;;;;;24.6;18.7;;;;;;;-0.94;75.37988;99930.03;;;;
2021/03/06 18:02:28;;;;;;;17.6;14.3;;;;;;;-1.1;75.53906;99925.91;;;;
2021/03/06 18:12:23;;;;;;;28;17.7;;;;;;;-1.14;76.4873;99916.73;;;;
2021/03/06 18:22:20;;;;;;;26.5;18.2;;;;;;;-1.25;76.74121;99904.08;;;;
2021/03/06 18:32:18;;;;;;;25.2;15.8;;;;;;;-1.32;76.88379;99897.95;;;;
2021/03/06 18:42:15;;;;;;;23.4;16;;;;;;;-1.39;77.93262;99891.04;;;;
2021/03/06 18:52:13;;;;;;;27.2;21;;;;;;;-1.47;79.13477;99885.91;;;;
2021/03/06 19:02:11;;;;;;;26;18.8;;;;;;;-1.57;81.42969;99868.61;;;;
2021/03/06 19:12:08;;;;;;;28;19.5;;;;;;;-1.63;81.36328;99877.3;;;;
2021/03/06 19:22:06;;;;;;;28.7;19.2;;;;;;;-1.68;82.33789;99857.78;;;;
2021/03/06 19:32:03;;;;;;;33.5;19.5;;;;;;;-1.69;82.17188;99853.49;;;;
2021/03/06 19:42:01;;;;;;;29.3;22.6;;;;;;;-1.72;82.93359;99833.58;;;;
2021/03/06 19:51:58;;;;;;;37.9;22.9;;;;;;;-1.68;82.65527;99831.34;;;;
2021/03/06 20:01:56;;;;;;;30.6;23.9;;;;;;;-1.75;82.89355;99836.61;;;;
2021/03/06 20:11:53;;;;;;;39.2;20.7;;;;;;;-1.74;82.25;99824.22;;;;
2021/03/06 20:21:51;;;;;;;30.7;22.4;;;;;;;-1.77;82.7041;99843.11;;;;
2021/03/06 20:31:48;;;;;;;23.5;17.1;;;;;;;-1.67;81.80371;99830.34;;;;
2021/03/06 20:41:45;;;;;;;21;16;;;;;;;-1.76;82.33398;99831.52;;;;
2021/03/06 20:51:43;;;;;;;21;17.1;;;;;;;-1.83;82.5166;99810.35;;;;
2021/03/06 21:01:40;;;;;;;22.7;17.1;;;;;;;-1.93;82.6709;99798.52;;;;
2021/03/06 21:11:38;;;;;;;25.8;19.6;;;;;;;-1.89;82.85449;99815.61;;;;
2021/03/06 21:21:35;;;;;;;31.1;19.7;;;;;;;-1.97;83.25488;99803.38;;;;
2021/03/06 21:31:33;;;;;;;45;22.3;;;;;;;-2.04;83.1875;99787.51;;;;
2021/03/06 21:41:30;;;;;;;32.4;17.3;;;;;;;-2.07;83.10547;99772.06;;;;
2021/03/06 21:51:28;;;;;;;27.3;17.7;;;;;;;-2.12;82.8877;99774.46;;;;
2021/03/06 22:01:29;;;;;;;25.6;16.9;;;;;;;-2.06;82.01367;99786.91;;;;
2021/03/06 22:11:22;;;;;;;16.2;11;;;;;;;-2.12;81.85938;99779.74;;;;
2021/03/06 22:21:20;;;;;;;19;14.1;;;;;;;-2.09;81.47266;99779.38;;;;
2021/03/06 22:31:17;;;;;;;25.5;15;;;;;;;-2.17;81.80762;99774.25;;;;
2021/03/06 22:41:15;;;;;;;18.7;13.9;;;;;;;-2.23;81.80469;99774.23;;;;
2021/03/06 22:51:12;;;;;;;25.5;15.6;;;;;;;-2.27;81.85254;99751.86;;;;
2021/03/06 23:01:09;;;;;;;22.8;14.2;;;;;;;-2.34;81.72949;99743.09;;;;
2021/03/06 23:11:07;;;;;;;22.3;15.1;;;;;;;-2.38;81.97363;99737.39;;;;
2021/03/06 23:21:04;;;;;;;26.1;16.4;;;;;;;-2.46;82.17676;99750.73;;;;
2021/03/06 23:31:01;;;;;;;18.5;15.4;;;;;;;-2.6;82.1377;99738.48;;;;
2021/03/06 23:40:59;;;;;;;28.1;14.9;;;;;;;-2.59;82.21777;99751.49;;;;
2021/03/06 23:50:56;;;;;;;23.8;14.1;;;;;;;-2.57;82.67871;99756.59;;;;
